Time;durP1;ratioP1;P1;durP2;ratioP2;P2;SDS_P1;SDS_P2;PMS_P1;PMS_P2;Temp;Humidity;BMP_temperature;BMP_pressure;BME280_temperature;BME280_humidity;BME280_pressure;Samples;Min_cycle;Max_cycle;Signal;HPM_P1;HPM_P2
2020/12/15 00:02:11;;;;;;;6.32;5.07;;;5.60;99.90;;;;;;5024429;28;20246;-81
2020/12/15 00:04:38;;;;;;;8.98;5.65;;;5.60;99.90;;;;;;5014744;28;20203;-81
2020/12/15 00:07:04;;;;;;;6.35;5.75;;;5.60;99.90;;;;;;5014879;28;20302;-81
2020/12/15 00:09:31;;;;;;;7.78;5.47;;;5.60;99.90;;;;;;5014685;28;20204;-81
2020/12/15 00:11:57;;;;;;;7.57;5.43;;;5.60;99.90;;;;;;5014572;28;20221;-81
2020/12/15 00:14:24;;;;;;;8.55;5.18;;;5.60;99.90;;;;;;5014721;28;20297;-82
2020/12/15 00:16:50;;;;;;;6.93;5.47;;;5.60;99.90;;;;;;5014391;28;20210;-80
2020/12/15 00:19:16;;;;;;;10.32;6.25;;;5.60;99.90;;;;;;5013857;28;20211;-82
2020/12/15 00:21:44;;;;;;;12.40;7.22;;;5.60;99.90;;;;;;5013912;28;20711;-81
2020/12/15 00:24:11;;;;;;;10.95;6.90;;;5.70;99.90;;;;;;5014275;28;20207;-81
2020/12/15 00:26:37;;;;;;;9.60;6.85;;;5.70;99.90;;;;;;5014597;28;20235;-81
2020/12/15 00:29:04;;;;;;;8.10;6.65;;;5.60;99.90;;;;;;5014211;28;20214;-82
2020/12/15 00:31:35;;;;;;;8.02;5.97;;;5.60;99.90;;;;;;5013246;28;20214;-82
2020/12/15 00:34:01;;;;;;;8.82;6.55;;;5.50;99.90;;;;;;5013156;28;20663;-82
2020/12/15 00:36:28;;;;;;;7.25;5.88;;;5.50;99.90;;;;;;5012801;28;20660;-81
2020/12/15 00:38:55;;;;;;;6.32;5.32;;;5.40;99.90;;;;;;5013969;28;20221;-81
2020/12/15 00:41:21;;;;;;;7.75;5.97;;;5.40;99.90;;;;;;5013980;28;20624;-81
2020/12/15 00:43:48;;;;;;;7.57;5.22;;;5.40;99.90;;;;;;5013971;28;20298;-81
2020/12/15 00:46:16;;;;;;;9.52;5.93;;;5.30;99.90;;;;;;5010526;28;20226;-81
2020/12/15 00:48:43;;;;;;;5.30;4.75;;;5.30;99.90;;;;;;5012622;28;20250;-81
2020/12/15 00:51:14;;;;;;;9.38;6.50;;;5.30;99.90;;;;;;5013638;28;20200;-82
2020/12/15 00:53:40;;;;;;;7.65;6.50;;;5.30;99.90;;;;;;5013850;28;20211;-81
2020/12/15 00:56:07;;;;;;;8.38;5.63;;;5.30;99.90;;;;;;5013939;28;20214;-82
2020/12/15 00:58:35;;;;;;;8.07;5.72;;;5.30;99.90;;;;;;5013357;28;20232;-82
2020/12/15 01:01:01;;;;;;;6.30;5.70;;;5.30;99.90;;;;;;5009392;28;20227;-82
2020/12/15 01:03:27;;;;;;;5.45;4.90;;;5.30;99.90;;;;;;5012419;28;20239;-82
2020/12/15 01:05:54;;;;;;;8.88;5.18;;;5.50;99.90;;;;;;5012515;28;20211;-82
2020/12/15 01:08:22;;;;;;;5.18;4.53;;;5.50;99.90;;;;;;5013462;28;20298;-82
2020/12/15 01:10:48;;;;;;;6.38;4.45;;;5.60;99.90;;;;;;5013399;28;20203;-82
2020/12/15 01:13:15;;;;;;;4.82;4.32;;;5.70;99.90;;;;;;5013317;28;20691;-81
2020/12/15 01:15:41;;;;;;;5.90;4.60;;;5.70;99.90;;;;;;5013245;28;20297;-81
2020/12/15 01:18:08;;;;;;;5.18;3.80;;;5.80;99.90;;;;;;5011958;28;20306;-81
2020/12/15 01:20:34;;;;;;;4.47;3.90;;;5.90;99.90;;;;;;5013496;28;20251;-81
2020/12/15 01:23:00;;;;;;;6.50;5.25;;;6.00;99.90;;;;;;5013289;28;20261;-81
2020/12/15 01:25:27;;;;;;;3.92;3.60;;;6.10;99.90;;;;;;5013284;28;20229;-81
2020/12/15 01:27:53;;;;;;;5.00;3.28;;;6.20;99.90;;;;;;5013176;28;20211;-81
2020/12/15 01:30:20;;;;;;;3.67;3.38;;;6.20;99.90;;;;;;5012959;28;20644;-81
2020/12/15 01:32:47;;;;;;;6.35;4.28;;;6.30;99.90;;;;;;5012680;28;20294;-81
2020/12/15 01:35:13;;;;;;;4.15;2.97;;;6.30;99.90;;;;;;5012643;28;20239;-81
2020/12/15 01:37:40;;;;;;;5.07;3.78;;;6.30;99.90;;;;;;5012875;28;20204;-82
2020/12/15 01:40:06;;;;;;;5.82;3.75;;;6.40;99.90;;;;;;5013004;28;20228;-81
2020/12/15 01:42:33;;;;;;;4.22;3.38;;;6.40;99.90;;;;;;5012560;28;20206;-81
2020/12/15 01:44:59;;;;;;;4.32;3.40;;;6.40;99.90;;;;;;5012775;28;20211;-81
2020/12/15 01:47:26;;;;;;;3.40;3.10;;;6.50;99.90;;;;;;5012937;28;20210;-81
2020/12/15 01:49:54;;;;;;;4.55;3.70;;;6.50;99.90;;;;;;5011473;28;20204;-81
2020/12/15 01:52:21;;;;;;;5.22;3.90;;;6.50;99.90;;;;;;5009900;28;20210;-82
2020/12/15 01:54:48;;;;;;;6.90;5.35;;;6.50;99.90;;;;;;5012750;28;20238;-81
2020/12/15 01:57:14;;;;;;;4.97;3.83;;;6.50;99.90;;;;;;5012707;28;20210;-81
2020/12/15 01:59:40;;;;;;;5.07;4.00;;;6.60;99.90;;;;;;5011547;28;20737;-81
2020/12/15 02:02:07;;;;;;;6.55;4.43;;;6.50;99.90;;;;;;5012637;28;20663;-81
2020/12/15 02:04:34;;;;;;;3.92;3.33;;;6.50;99.90;;;;;;5010653;28;20214;-80
2020/12/15 02:07:01;;;;;;;4.50;3.50;;;6.50;99.90;;;;;;5012676;28;20203;-81
2020/12/15 02:09:28;;;;;;;4.40;3.78;;;6.50;99.90;;;;;;5012808;28;20211;-81
2020/12/15 02:11:54;;;;;;;5.15;3.85;;;6.60;99.90;;;;;;5012592;28;20234;-81
2020/12/15 02:14:21;;;;;;;2.97;2.67;;;6.60;99.90;;;;;;5011525;28;20300;-81
2020/12/15 02:16:50;;;;;;;4.88;4.10;;;6.60;99.90;;;;;;5012839;28;20204;-82
2020/12/15 02:19:18;;;;;;;7.30;4.35;;;6.60;99.90;;;;;;5011739;28;20211;-82
2020/12/15 02:21:53;;;;;;;6.35;4.85;;;6.50;99.90;;;;;;5012666;28;20250;-82
2020/12/15 02:24:20;;;;;;;6.72;3.75;;;6.50;99.90;;;;;;5012520;28;20213;-81
2020/12/15 02:26:46;;;;;;;6.03;3.67;;;6.50;99.90;;;;;;5012607;28;20203;-82
2020/12/15 02:29:12;;;;;;;8.40;4.90;;;6.50;99.90;;;;;;5012653;28;20242;-81
2020/12/15 02:31:39;;;;;;;5.18;3.90;;;6.40;99.90;;;;;;5012367;28;20210;-82
2020/12/15 02:34:06;;;;;;;5.20;3.70;;;6.40;99.90;;;;;;5011508;28;20210;-81
2020/12/15 02:36:32;;;;;;;4.88;4.40;;;6.40;99.90;;;;;;5011091;28;20214;-82
2020/12/15 02:39:08;;;;;;;5.60;4.85;;;6.40;99.90;;;;;;5012403;28;20846;-82
2020/12/15 02:41:34;;;;;;;4.50;4.05;;;6.40;99.90;;;;;;5012460;28;20240;-82
2020/12/15 02:44:01;;;;;;;10.52;4.90;;;6.30;99.90;;;;;;5012509;28;20200;-82
2020/12/15 02:46:27;;;;;;;4.85;3.92;;;6.30;99.90;;;;;;5012689;28;20294;-82
2020/12/15 02:48:55;;;;;;;3.83;3.53;;;6.30;99.90;;;;;;5011124;28;20208;-81
2020/12/15 02:51:21;;;;;;;5.95;3.97;;;6.30;99.90;;;;;;5011788;28;20574;-81
2020/12/15 02:53:48;;;;;;;6.43;5.75;;;6.40;99.90;;;;;;5012191;28;20204;-81
2020/12/15 02:56:20;;;;;;;6.40;4.63;;;6.50;99.90;;;;;;5015018;28;20298;-81
2020/12/15 02:58:46;;;;;;;6.25;4.32;;;6.50;99.90;;;;;;5015658;28;20231;-81
2020/12/15 03:01:13;;;;;;;5.85;4.70;;;6.60;99.90;;;;;;5014183;28;20237;-81
2020/12/15 03:03:39;;;;;;;6.80;4.47;;;6.40;99.90;;;;;;5014585;28;20298;-81
2020/12/15 03:06:06;;;;;;;5.93;4.60;;;6.30;99.90;;;;;;5015595;28;20272;-82
2020/12/15 03:08:32;;;;;;;5.50;4.95;;;6.30;99.90;;;;;;5015714;28;20247;-81
2020/12/15 03:10:59;;;;;;;5.47;4.82;;;6.30;99.90;;;;;;5015608;28;20295;-81
2020/12/15 03:13:26;;;;;;;6.07;3.92;;;6.30;99.90;;;;;;5015661;28;20210;-81
2020/12/15 03:15:52;;;;;;;7.80;5.38;;;6.20;99.90;;;;;;5015192;28;20296;-82
2020/12/15 03:18:19;;;;;;;6.65;4.88;;;6.20;99.90;;;;;;5014008;28;20599;-82
2020/12/15 03:20:47;;;;;;;7.03;5.07;;;6.40;99.90;;;;;;5015215;28;20231;-80
2020/12/15 03:23:14;;;;;;;6.30;4.70;;;6.40;99.90;;;;;;5015361;28;20211;-82
2020/12/15 03:25:41;;;;;;;5.18;4.68;;;6.30;99.90;;;;;;5015483;28;20287;-82
2020/12/15 03:28:07;;;;;;;5.40;4.72;;;6.30;99.90;;;;;;5015210;28;20203;-81
2020/12/15 03:30:35;;;;;;;5.40;4.07;;;6.40;99.90;;;;;;5015117;28;20218;-82
2020/12/15 03:33:02;;;;;;;5.18;3.88;;;6.30;99.90;;;;;;5013915;28;20215;-81
2020/12/15 03:35:28;;;;;;;3.90;3.33;;;6.20;99.90;;;;;;5014481;28;20294;-82
2020/12/15 03:37:55;;;;;;;4.38;3.38;;;6.20;99.90;;;;;;5015206;28;20226;-82
2020/12/15 03:40:22;;;;;;;3.90;3.50;;;6.10;99.90;;;;;;5015120;28;20228;-82
2020/12/15 03:42:48;;;;;;;4.65;3.22;;;6.20;99.90;;;;;;5014771;28;20207;-82
2020/12/15 03:45:15;;;;;;;5.72;5.05;;;6.30;99.90;;;;;;5015004;28;20216;-82
2020/12/15 03:47:43;;;;;;;6.03;3.63;;;6.40;99.90;;;;;;5011918;28;20207;-82
2020/12/15 03:50:09;;;;;;;6.15;3.75;;;6.60;99.90;;;;;;5013284;28;20207;-80
2020/12/15 03:52:37;;;;;;;5.63;4.93;;;6.60;99.90;;;;;;5014712;28;20211;-81
2020/12/15 03:55:04;;;;;;;9.50;4.93;;;6.50;99.90;;;;;;5010790;28;20211;-82
2020/12/15 03:57:30;;;;;;;4.75;3.80;;;6.60;99.90;;;;;;5014723;28;20338;-81
2020/12/15 03:59:56;;;;;;;4.85;3.72;;;6.70;99.90;;;;;;5014622;28;20235;-81
2020/12/15 04:02:23;;;;;;;5.47;3.55;;;6.70;99.90;;;;;;5014676;28;20222;-80
2020/12/15 04:04:50;;;;;;;4.22;3.42;;;6.80;99.90;;;;;;5012930;28;20221;-80
2020/12/15 04:07:17;;;;;;;3.83;3.00;;;6.90;99.90;;;;;;5014492;28;20226;-80
2020/12/15 04:09:44;;;;;;;5.70;3.30;;;7.00;99.90;;;;;;5014425;28;20208;-79
2020/12/15 04:12:11;;;;;;;3.85;3.33;;;7.10;99.90;;;;;;5013207;28;20656;-81
2020/12/15 04:14:38;;;;;;;5.10;3.45;;;7.00;99.90;;;;;;5014230;28;20675;-79
2020/12/15 04:17:04;;;;;;;3.85;3.28;;;6.90;99.90;;;;;;5014281;28;20207;-79
2020/12/15 04:19:30;;;;;;;5.85;4.57;;;6.70;99.90;;;;;;5012781;28;20233;-80
2020/12/15 04:21:58;;;;;;;4.07;3.67;;;6.60;99.90;;;;;;5014312;28;20261;-78
2020/12/15 04:24:24;;;;;;;4.85;3.70;;;6.50;99.90;;;;;;5014237;28;20208;-81
2020/12/15 04:26:50;;;;;;;5.45;4.50;;;6.40;99.90;;;;;;5014247;28;20611;-81
2020/12/15 04:29:17;;;;;;;5.88;3.78;;;6.30;99.90;;;;;;5014196;28;20574;-81
2020/12/15 04:31:43;;;;;;;4.63;4.20;;;6.20;99.90;;;;;;5013867;28;20203;-80
2020/12/15 04:34:09;;;;;;;7.60;4.70;;;6.10;99.90;;;;;;5011413;28;20204;-81
2020/12/15 04:36:36;;;;;;;4.47;4.07;;;6.10;99.90;;;;;;5013913;28;20235;-80
2020/12/15 04:39:04;;;;;;;6.07;4.55;;;5.90;99.90;;;;;;5013806;28;20578;-80
2020/12/15 04:41:31;;;;;;;8.68;4.78;;;5.90;99.90;;;;;;5013709;28;20234;-81
2020/12/15 04:43:58;;;;;;;5.35;4.22;;;5.90;99.90;;;;;;5013653;28;20231;-80
2020/12/15 04:46:27;;;;;;;5.32;4.30;;;5.90;99.90;;;;;;5013588;28;20294;-81
2020/12/15 04:49:02;;;;;;;6.07;4.72;;;6.00;99.90;;;;;;5012164;28;20669;-80
2020/12/15 04:51:34;;;;;;;5.05;4.55;;;5.90;99.90;;;;;;5013545;28;20293;-81
2020/12/15 04:54:04;;;;;;;4.45;3.70;;;6.00;99.90;;;;;;5013615;28;20200;-82
2020/12/15 04:56:34;;;;;;;8.82;5.05;;;6.00;99.90;;;;;;5013545;28;20216;-81
2020/12/15 04:59:00;;;;;;;7.28;5.05;;;6.00;99.90;;;;;;5013411;28;20235;-81
2020/12/15 05:01:27;;;;;;;6.50;4.43;;;6.10;99.90;;;;;;5013453;28;20326;-81
2020/12/15 05:03:55;;;;;;;5.00;4.50;;;6.10;99.90;;;;;;5011229;28;20214;-81
2020/12/15 05:06:27;;;;;;;4.90;3.35;;;6.20;99.90;;;;;;4974090;28;20657;-80
2020/12/15 05:08:54;;;;;;;4.10;3.70;;;6.20;99.90;;;;;;4974357;28;20680;-80
2020/12/15 05:11:22;;;;;;;6.65;3.95;;;6.30;99.90;;;;;;4974120;28;20201;-79
2020/12/15 05:13:49;;;;;;;5.20;4.18;;;6.40;99.90;;;;;;4974303;28;20204;-80
2020/12/15 05:16:16;;;;;;;6.68;4.70;;;6.50;99.90;;;;;;4974236;28;20220;-80
2020/12/15 05:18:42;;;;;;;4.78;4.28;;;6.50;99.90;;;;;;4972497;28;20557;-80
2020/12/15 05:21:16;;;;;;;4.90;4.43;;;6.50;99.90;;;;;;4973829;28;20229;-79
2020/12/15 05:23:49;;;;;;;9.52;5.93;;;6.50;99.90;;;;;;4974018;28;20209;-81
2020/12/15 05:26:23;;;;;;;7.20;5.28;;;6.50;99.90;;;;;;4974154;28;20209;-81
2020/12/15 05:29:01;;;;;;;9.02;6.32;;;6.40;99.90;;;;;;4974105;28;20211;-81
2020/12/15 05:31:28;;;;;;;6.07;5.45;;;6.40;99.90;;;;;;4974073;28;20215;-81
2020/12/15 05:33:55;;;;;;;5.10;4.60;;;6.50;99.90;;;;;;4980119;28;20203;-81
2020/12/15 05:36:23;;;;;;;7.18;5.32;;;6.60;99.90;;;;;;5012773;28;20616;-81
2020/12/15 05:39:02;;;;;;;5.35;4.85;;;6.60;99.90;;;;;;5012732;28;20540;-81
2020/12/15 05:41:29;;;;;;;10.82;7.63;;;6.50;99.90;;;;;;5013083;28;20321;-81
2020/12/15 05:43:58;;;;;;;5.73;5.20;;;6.50;99.90;;;;;;5010033;28;20689;-81
2020/12/15 05:46:27;;;;;;;8.50;5.15;;;6.50;99.90;;;;;;5012935;28;20487;-81
2020/12/15 05:49:01;;;;;;;7.60;5.38;;;6.50;99.90;;;;;;5011480;28;20207;-81
2020/12/15 05:51:37;;;;;;;13.00;6.80;;;6.50;99.90;;;;;;5013018;28;20199;-81
2020/12/15 05:54:07;;;;;;;7.43;5.78;;;6.50;99.90;;;;;;5012719;28;20473;-81
2020/12/15 05:56:38;;;;;;;8.15;6.00;;;6.50;99.90;;;;;;5013021;28;20582;-81
2020/12/15 05:59:21;;;;;;;7.70;6.20;;;6.60;99.90;;;;;;5012621;28;20603;-81
2020/12/15 06:01:49;;;;;;;7.75;5.80;;;6.60;99.90;;;;;;5012789;28;20350;-82
2020/12/15 06:04:16;;;;;;;5.70;5.07;;;6.60;99.90;;;;;;5011091;28;20260;-81
2020/12/15 06:06:43;;;;;;;6.72;4.78;;;6.60;99.90;;;;;;5012595;28;20782;-81
2020/12/15 06:09:11;;;;;;;6.07;5.47;;;6.60;99.90;;;;;;5012697;28;20260;-81
2020/12/15 06:11:41;;;;;;;4.63;3.53;;;6.70;99.90;;;;;;5012683;28;20721;-79
2020/12/15 06:14:08;;;;;;;4.38;3.47;;;6.70;99.90;;;;;;5011628;28;20211;-81
2020/12/15 06:16:35;;;;;;;3.42;3.10;;;6.70;99.90;;;;;;5013266;28;20678;-82
2020/12/15 06:19:05;;;;;;;4.03;3.63;;;6.80;99.90;;;;;;5011234;28;20204;-81
2020/12/15 06:21:31;;;;;;;3.97;3.15;;;6.90;99.90;;;;;;5012593;28;20533;-81
2020/12/15 06:23:59;;;;;;;5.55;3.60;;;7.00;99.90;;;;;;5012914;28;20210;-81
2020/12/15 06:26:27;;;;;;;3.50;3.20;;;7.00;99.90;;;;;;5012689;28;20209;-81
2020/12/15 06:29:02;;;;;;;4.88;4.10;;;7.00;99.90;;;;;;5012588;28;20204;-82
2020/12/15 06:31:29;;;;;;;3.80;3.30;;;7.00;99.90;;;;;;5016165;28;20292;-81
2020/12/15 06:33:57;;;;;;;3.08;2.75;;;7.00;99.90;;;;;;5014964;28;20294;-81
2020/12/15 06:36:25;;;;;;;7.80;4.80;;;7.00;99.90;;;;;;5015165;28;20373;-81
2020/12/15 06:38:52;;;;;;;6.28;3.08;;;7.10;99.90;;;;;;5016061;28;20203;-82
2020/12/15 06:41:21;;;;;;;4.88;4.03;;;7.20;99.90;;;;;;5016335;28;20239;-81
2020/12/15 06:43:47;;;;;;;4.22;3.65;;;7.20;99.90;;;;;;5016204;28;20200;-81
2020/12/15 06:46:15;;;;;;;4.40;3.05;;;7.20;99.90;;;;;;5016175;28;20317;-80
2020/12/15 06:48:45;;;;;;;4.03;3.63;;;7.10;99.90;;;;;;5014916;28;20595;-82
2020/12/15 06:51:12;;;;;;;5.20;4.30;;;7.10;99.90;;;;;;5015698;28;20208;-82
2020/12/15 06:53:39;;;;;;;4.35;2.72;;;7.10;99.90;;;;;;5016099;28;20212;-81
2020/12/15 06:56:07;;;;;;;3.05;2.80;;;7.10;99.90;;;;;;5016163;28;20212;-81
2020/12/15 06:58:33;;;;;;;4.10;3.10;;;7.20;99.90;;;;;;5015762;28;20711;-81
2020/12/15 07:01:02;;;;;;;3.85;3.42;;;7.20;99.90;;;;;;5014732;28;20318;-81
2020/12/15 07:03:37;;;;;;;4.20;3.47;;;7.10;99.90;;;;;;5014507;28;20227;-82
2020/12/15 07:06:13;;;;;;;5.45;3.40;;;7.10;99.90;;;;;;5015578;28;20294;-83
2020/12/15 07:08:40;;;;;;;5.18;3.70;;;7.10;99.90;;;;;;5015700;28;20206;-83
2020/12/15 07:11:06;;;;;;;3.53;2.88;;;7.00;99.90;;;;;;5015811;28;20731;-83
2020/12/15 07:13:32;;;;;;;4.93;3.90;;;6.90;99.90;;;;;;5015723;28;20208;-82
2020/12/15 07:15:59;;;;;;;4.18;3.35;;;6.90;99.90;;;;;;5015444;28;20460;-82
2020/12/15 07:18:25;;;;;;;4.93;3.80;;;7.00;99.90;;;;;;5014130;28;20214;-82
2020/12/15 07:20:53;;;;;;;5.25;4.30;;;6.90;99.90;;;;;;5015191;28;20262;-82
2020/12/15 07:23:21;;;;;;;5.95;4.32;;;6.80;99.90;;;;;;5015205;28;20235;-83
2020/12/15 07:25:47;;;;;;;4.32;3.88;;;6.80;99.90;;;;;;5015482;28;20227;-82
2020/12/15 07:28:14;;;;;;;5.95;4.40;;;6.70;99.90;;;;;;5015443;28;20298;-82
2020/12/15 07:30:40;;;;;;;6.60;4.22;;;6.80;99.90;;;;;;5015313;28;20211;-81
2020/12/15 07:33:06;;;;;;;5.20;3.73;;;6.70;99.90;;;;;;5013845;28;20210;-83
2020/12/15 07:35:34;;;;;;;4.03;3.67;;;6.70;99.90;;;;;;5013795;28;20560;-82
2020/12/15 07:38:03;;;;;;;5.15;4.28;;;6.70;99.90;;;;;;5014887;28;20207;-82
2020/12/15 07:40:30;;;;;;;5.10;3.45;;;6.80;99.90;;;;;;5014692;28;20731;-81
2020/12/15 07:42:58;;;;;;;3.58;3.20;;;6.80;99.90;;;;;;5015050;28;20203;-83
2020/12/15 07:45:25;;;;;;;4.25;2.95;;;6.90;99.90;;;;;;5014846;28;20215;-82
2020/12/15 07:47:53;;;;;;;5.95;3.50;;;7.00;99.90;;;;;;5014894;28;20200;-79
2020/12/15 07:50:26;;;;;;;3.27;2.97;;;7.60;99.90;;;;;;5013965;28;20204;-81
2020/12/15 07:52:53;;;;;;;3.40;3.10;;;8.00;99.90;;;;;;5015015;28;20509;-81
2020/12/15 07:55:21;;;;;;;4.77;3.43;;;7.80;99.90;;;;;;5015221;28;20494;-81
2020/12/15 07:57:47;;;;;;;6.80;3.13;;;7.70;99.90;;;;;;5016200;28;20467;-81
2020/12/15 08:00:15;;;;;;;4.22;3.83;;;7.60;99.90;;;;;;5014465;28;20859;-82
2020/12/15 08:02:43;;;;;;;3.50;3.20;;;7.60;99.90;;;;;;5014750;28;20577;-82
2020/12/15 08:05:15;;;;;;;4.00;3.60;;;7.60;99.90;;;;;;5013405;28;20465;-81
2020/12/15 08:07:49;;;;;;;4.45;3.50;;;7.60;99.90;;;;;;5014345;28;20502;-82
2020/12/15 08:10:22;;;;;;;2.83;2.58;;;7.50;99.90;;;;;;5013723;28;20217;-82
2020/12/15 08:12:49;;;;;;;4.00;3.60;;;7.50;99.90;;;;;;5014467;28;20689;-81
2020/12/15 08:15:17;;;;;;;4.32;3.40;;;7.60;99.90;;;;;;5014087;28;20549;-82
2020/12/15 08:17:45;;;;;;;3.07;2.80;;;7.60;99.90;;;;;;5014593;28;20208;-82
2020/12/15 08:20:14;;;;;;;6.33;4.90;;;7.70;99.90;;;;;;5013325;28;20455;-81
2020/12/15 08:22:43;;;;;;;5.87;3.70;;;7.70;99.90;;;;;;5013992;28;20493;-80
2020/12/15 08:25:10;;;;;;;3.75;3.40;;;7.80;99.90;;;;;;5014175;28;20529;-80
2020/12/15 08:27:36;;;;;;;4.63;3.90;;;7.70;99.90;;;;;;5014167;28;20266;-81
2020/12/15 08:30:15;;;;;;;4.30;3.77;;;7.70;99.90;;;;;;5014390;28;20813;-81
2020/12/15 08:32:46;;;;;;;8.33;4.53;;;7.80;99.90;;;;;;5013714;28;20480;-81
2020/12/15 08:35:13;;;;;;;4.70;4.30;;;7.80;99.90;;;;;;4973840;28;20533;-80
2020/12/15 08:37:43;;;;;;;4.50;4.10;;;7.90;99.90;;;;;;4974275;28;20544;-81
2020/12/15 08:40:11;;;;;;;5.87;3.97;;;7.90;99.90;;;;;;4974849;28;20503;-81
2020/12/15 08:42:42;;;;;;;9.00;4.80;;;7.90;99.90;;;;;;4974886;28;20500;-86
2020/12/15 08:45:13;;;;;;;4.87;3.40;;;7.90;99.90;;;;;;4974992;28;20488;-84
2020/12/15 08:47:47;;;;;;;6.43;4.13;;;7.90;99.90;;;;;;4975037;28;20453;-83
2020/12/15 08:50:14;;;;;;;4.83;4.40;;;7.80;99.90;;;;;;4973511;28;20899;-85
2020/12/15 08:52:41;;;;;;;5.10;4.60;;;7.80;99.90;;;;;;4974000;28;20503;-82
2020/12/15 08:55:08;;;;;;;5.77;4.30;;;7.90;99.90;;;;;;4974621;28;20456;-83
2020/12/15 08:57:34;;;;;;;6.13;4.00;;;8.00;99.90;;;;;;4981982;28;20537;-85
2020/12/15 09:00:12;;;;;;;7.00;4.97;;;7.90;99.90;;;;;;4915028;29;20509;-84
2020/12/15 09:02:39;;;;;;;8.63;4.57;;;7.90;99.90;;;;;;4911951;29;20498;-84
2020/12/15 09:05:07;;;;;;;7.13;4.60;;;8.10;99.90;;;;;;4914020;29;20455;-80
2020/12/15 09:07:34;;;;;;;7.97;5.80;;;8.50;99.90;;;;;;4914900;29;20459;-81
2020/12/15 09:10:15;;;;;;;8.33;6.00;;;8.20;99.90;;;;;;4914889;29;20459;-80
2020/12/15 09:12:45;;;;;;;6.67;4.53;;;8.00;99.90;;;;;;4914605;29;20462;-81
2020/12/15 09:15:12;;;;;;;6.67;4.70;;;7.90;99.90;;;;;;4914599;29;20458;-82
2020/12/15 09:17:40;;;;;;;6.03;4.03;;;7.80;99.90;;;;;;4937861;28;20451;-81
2020/12/15 09:20:08;;;;;;;4.97;3.77;;;7.80;99.90;;;;;;4992467;28;20538;-80
2020/12/15 09:22:37;;;;;;;5.23;3.77;;;7.90;99.90;;;;;;4993643;28;20998;-81
2020/12/15 09:25:11;;;;;;;3.90;3.40;;;8.00;99.90;;;;;;4993524;28;20456;-81
2020/12/15 09:27:38;;;;;;;4.87;3.67;;;8.00;99.90;;;;;;4993307;28;20486;-81
2020/12/15 09:30:04;;;;;;;5.57;4.70;;;8.00;99.90;;;;;;4993930;28;20542;-81
2020/12/15 09:32:34;;;;;;;4.67;3.73;;;8.10;99.90;;;;;;5003042;28;20465;-80
2020/12/15 09:35:01;;;;;;;5.13;3.87;;;8.10;99.90;;;;;;5010413;28;21026;-80
2020/12/15 09:37:27;;;;;;;5.97;3.57;;;8.20;99.90;;;;;;5013292;28;20460;-81
2020/12/15 09:39:53;;;;;;;4.80;4.30;;;8.30;99.90;;;;;;5013117;28;20861;-82
2020/12/15 09:42:22;;;;;;;3.40;3.20;;;8.30;99.90;;;;;;5012799;28;20932;-82
2020/12/15 09:44:48;;;;;;;5.13;3.97;;;8.30;99.90;;;;;;5012994;28;20454;-81
2020/12/15 09:47:15;;;;;;;3.70;3.13;;;8.30;99.90;;;;;;5013045;28;20482;-82
2020/12/15 09:49:41;;;;;;;4.70;4.03;;;8.30;99.90;;;;;;5011517;28;20765;-83
2020/12/15 09:52:08;;;;;;;4.93;4.20;;;8.30;99.90;;;;;;5012960;28;20538;-83
2020/12/15 09:54:35;;;;;;;3.97;3.07;;;8.30;99.90;;;;;;5012810;28;20490;-82
2020/12/15 09:57:01;;;;;;;3.60;3.23;;;8.30;99.90;;;;;;5012871;28;20462;-83
2020/12/15 09:59:28;;;;;;;3.50;2.50;;;8.40;99.90;;;;;;4960405;28;20503;-82
2020/12/15 10:01:54;;;;;;;4.40;3.63;;;8.50;99.90;;;;;;4994249;28;20594;-82
2020/12/15 10:04:20;;;;;;;5.70;4.00;;;8.50;99.90;;;;;;5012110;28;20447;-82
2020/12/15 10:06:48;;;;;;;4.50;2.97;;;8.60;99.90;;;;;;4984083;28;20486;-81
2020/12/15 10:09:16;;;;;;;4.17;3.13;;;8.70;99.90;;;;;;4995847;28;20454;-82
2020/12/15 10:11:43;;;;;;;7.90;4.63;;;8.70;99.90;;;;;;4995542;28;20534;-83
2020/12/15 10:14:09;;;;;;;8.47;4.70;;;8.70;99.90;;;;;;4995599;28;20789;-81
2020/12/15 10:16:35;;;;;;;6.40;5.10;;;8.60;99.90;;;;;;4995499;28;20477;-81
2020/12/15 10:19:02;;;;;;;7.00;5.13;;;8.40;99.90;;;;;;4993861;28;20435;-82
2020/12/15 10:21:28;;;;;;;5.60;4.60;;;8.20;99.90;;;;;;4995488;28;21031;-82
2020/12/15 10:23:55;;;;;;;9.33;5.10;;;8.10;99.90;;;;;;4961372;28;20979;-82
2020/12/15 10:26:24;;;;;;;6.17;5.57;;;8.00;99.90;;;;;;4995265;28;20538;-83
2020/12/15 10:28:52;;;;;;;5.47;4.30;;;8.10;99.90;;;;;;4995451;28;20459;-82
2020/12/15 10:31:19;;;;;;;8.10;5.07;;;8.20;99.90;;;;;;4992609;28;20450;-82
2020/12/15 10:33:45;;;;;;;7.03;4.83;;;8.40;99.90;;;;;;4995121;28;20545;-83
2020/12/15 10:36:13;;;;;;;4.73;4.07;;;8.50;99.90;;;;;;4995150;28;20458;-82
2020/12/15 10:38:39;;;;;;;6.50;5.63;;;8.60;99.90;;;;;;4992511;28;20440;-81
2020/12/15 10:41:07;;;;;;;4.93;4.43;;;8.60;99.90;;;;;;4995877;28;20486;-82
2020/12/15 10:43:34;;;;;;;6.37;4.30;;;8.70;99.90;;;;;;4995318;28;20821;-82
2020/12/15 10:46:00;;;;;;;4.93;3.73;;;8.80;99.90;;;;;;4995065;28;20443;-81
2020/12/15 10:48:27;;;;;;;6.03;4.20;;;8.80;99.90;;;;;;4993443;28;20449;-82
2020/12/15 10:50:54;;;;;;;5.20;3.93;;;8.90;99.90;;;;;;4994999;28;20439;-81
2020/12/15 10:53:20;;;;;;;5.33;4.53;;;9.00;99.90;;;;;;4994761;28;20440;-82
2020/12/15 10:55:48;;;;;;;7.30;4.77;;;9.00;99.90;;;;;;4994883;28;20451;-80
2020/12/15 10:58:14;;;;;;;6.37;5.10;;;9.00;99.90;;;;;;4992123;28;20540;-82
2020/12/15 11:00:42;;;;;;;5.20;4.70;;;9.00;99.90;;;;;;4994773;28;20435;-82
2020/12/15 11:03:09;;;;;;;7.13;4.93;;;9.00;99.90;;;;;;4993688;28;20461;-82
2020/12/15 11:05:35;;;;;;;6.13;4.53;;;9.10;99.90;;;;;;4994857;28;20451;-83
2020/12/15 11:08:02;;;;;;;6.90;5.17;;;9.10;99.90;;;;;;4995463;28;20463;-83
2020/12/15 11:10:28;;;;;;;8.33;5.23;;;9.20;99.90;;;;;;4995177;28;20447;-81
2020/12/15 11:12:55;;;;;;;5.90;5.20;;;9.20;99.90;;;;;;4995964;28;20485;-81
2020/12/15 11:15:21;;;;;;;8.37;5.50;;;9.10;99.90;;;;;;4995368;28;20471;-81
2020/12/15 11:17:48;;;;;;;7.30;4.93;;;9.10;99.90;;;;;;4995855;28;20474;-81
2020/12/15 11:20:15;;;;;;;5.87;5.10;;;9.20;99.90;;;;;;4994618;28;20494;-82
2020/12/15 11:22:41;;;;;;;6.77;4.73;;;9.20;99.90;;;;;;4995231;28;20582;-82
2020/12/15 11:25:08;;;;;;;7.00;5.30;;;9.20;99.90;;;;;;4995698;28;20580;-81
2020/12/15 11:27:34;;;;;;;7.73;5.13;;;9.20;99.90;;;;;;4995867;28;20847;-80
2020/12/15 11:30:00;;;;;;;6.93;4.77;;;9.30;99.90;;;;;;4995672;28;20528;-81
2020/12/15 11:32:27;;;;;;;7.83;5.40;;;9.30;99.90;;;;;;4995582;28;20463;-81
2020/12/15 11:34:54;;;;;;;9.50;7.20;;;9.40;99.90;;;;;;4994261;28;20978;-80
2020/12/15 11:37:20;;;;;;;4.23;3.57;;;9.50;99.90;;;;;;5005371;28;20570;-81
2020/12/15 11:39:46;;;;;;;6.10;4.93;;;9.50;99.90;;;;;;5014526;28;20460;-81
2020/12/15 11:42:14;;;;;;;6.50;5.20;;;9.60;99.90;;;;;;5014900;28;20501;-82
2020/12/15 11:44:40;;;;;;;5.40;4.50;;;9.60;99.90;;;;;;5014891;28;20451;-81
2020/12/15 11:47:07;;;;;;;5.30;4.70;;;9.60;99.90;;;;;;5014846;28;20549;-80
2020/12/15 11:49:33;;;;;;;6.00;5.00;;;9.70;99.90;;;;;;5013906;28;20459;-81
2020/12/15 11:52:00;;;;;;;5.07;3.73;;;9.60;99.90;;;;;;5014911;28;20537;-82
2020/12/15 11:54:28;;;;;;;7.00;4.27;;;9.70;99.90;;;;;;5014995;28;20989;-81
2020/12/15 11:56:55;;;;;;;7.00;5.33;;;9.70;99.90;;;;;;5014922;28;20462;-82
2020/12/15 11:59:22;;;;;;;6.33;5.00;;;9.60;99.90;;;;;;5014746;28;20486;-82
2020/12/15 12:01:50;;;;;;;6.73;5.87;;;9.60;99.90;;;;;;5014714;28;20592;-82
2020/12/15 12:04:17;;;;;;;6.93;5.10;;;9.60;99.90;;;;;;5012184;28;20492;-82
2020/12/15 12:06:43;;;;;;;6.20;4.80;;;9.70;99.90;;;;;;5014560;28;21011;-82
2020/12/15 12:09:10;;;;;;;5.20;4.37;;;9.60;99.90;;;;;;5014533;28;20462;-82
2020/12/15 12:11:36;;;;;;;8.07;4.90;;;9.60;99.90;;;;;;5014552;28;20819;-82
2020/12/15 12:14:03;;;;;;;8.27;5.77;;;9.60;99.90;;;;;;5014542;28;20884;-82
2020/12/15 12:16:29;;;;;;;7.33;4.67;;;9.60;99.90;;;;;;5014371;28;20461;-82
2020/12/15 12:18:55;;;;;;;7.63;4.87;;;9.60;99.90;;;;;;5012734;28;20459;-82
2020/12/15 12:21:22;;;;;;;8.60;5.53;;;9.60;99.90;;;;;;5014190;28;20677;-82
2020/12/15 12:23:48;;;;;;;6.60;4.23;;;9.60;99.90;;;;;;5014338;28;20473;-82
2020/12/15 12:26:16;;;;;;;5.33;4.57;;;9.60;99.90;;;;;;5014300;28;21000;-82
2020/12/15 12:28:42;;;;;;;5.47;4.47;;;9.70;99.90;;;;;;5013131;28;20827;-82
2020/12/15 12:31:12;;;;;;;5.17;4.17;;;9.70;99.90;;;;;;5014315;28;20454;-81
2020/12/15 12:33:38;;;;;;;5.90;5.30;;;9.70;99.90;;;;;;5012494;28;20458;-82
2020/12/15 12:36:05;;;;;;;7.50;4.70;;;9.70;99.90;;;;;;5005764;28;20471;-81
2020/12/15 12:38:31;;;;;;;5.30;3.97;;;9.80;99.90;;;;;;4994517;28;20491;-81
2020/12/15 12:40:57;;;;;;;3.90;3.50;;;9.70;99.90;;;;;;4994131;28;20452;-80
2020/12/15 12:43:25;;;;;;;4.97;3.10;;;9.80;99.90;;;;;;4994440;28;20542;-80
2020/12/15 12:45:51;;;;;;;7.23;4.40;;;9.70;99.90;;;;;;4994056;28;20462;-80
2020/12/15 12:48:19;;;;;;;4.33;3.93;;;9.70;99.90;;;;;;4992910;28;20980;-80
2020/12/15 12:50:46;;;;;;;6.07;3.97;;;9.70;99.90;;;;;;4993939;28;20863;-80
2020/12/15 12:53:12;;;;;;;7.20;5.57;;;9.80;99.90;;;;;;4994207;28;20459;-80
2020/12/15 12:55:38;;;;;;;8.90;5.67;;;9.70;99.90;;;;;;4994210;28;20920;-80
2020/12/15 12:58:05;;;;;;;8.10;5.37;;;9.50;99.90;;;;;;4993830;28;20459;-80
2020/12/15 13:00:32;;;;;;;7.80;5.87;;;9.50;99.90;;;;;;4993855;28;20494;-81